KGHB

Salsa

Salsa, Louisiana, USA
METAR KGHB 180835Z AUTO 16014KT 5SM BR BKN004 BKN100 24/23 A3011 RMK A01
Observed Flight Rules
Dec-18 @ 08:35 UTC (18 minutes ago) Instrument Flight Rules
Wind Visibility Clouds Conditions
160° at 14 knots 5 miles
  • Broken at 400' AGL
  • Broken at 10,000' AGL
  • Mist
Temperatures Readings
Current 24°C / 75°F
Dewpoint 23°C / 73°F
Humidity 94%
Altimeter 30.11" Hg
Pressure 1020 hPa
Elevation 30
METAR KGHB 180835Z AUTO 16014KT 5SM BR BKN004 BKN100 24/23 A3011 RMK A01
Observed Flight Rules
Dec-18 @ 08:35 UTC
(18 minutes ago)
LIFR
Wind Visibility
160° at 14 knots 5 miles
Clouds
  • Broken at 400' AGL
  • Broken at 10,000' AGL
Conditions
  • Mist
Temperature Dewpoint
24°C / 75°F 23°C / 73°F
Humidity Altimeter Pressure
94% 30.11" Hg 1020 hPa